createdAt,value
2018-02-03T00:00:10.342Z,96434.14
2018-02-03T00:02:37.873Z,96432.32
2018-02-03T00:05:05.378Z,96431.69
2018-02-03T00:07:32.921Z,96435.92
2018-02-03T00:10:00.904Z,96440.79
2018-02-03T00:12:28.485Z,96431.19
2018-02-03T00:14:56.116Z,96439.13
2018-02-03T00:17:23.699Z,96432.19
2018-02-03T00:19:51.234Z,96434.81
2018-02-03T00:22:18.751Z,96436.96
2018-02-03T00:24:46.297Z,96433.20
2018-02-03T00:27:13.818Z,96430.55
2018-02-03T00:29:41.609Z,96426.44
2018-02-03T00:32:09.147Z,96422.48
2018-02-03T00:34:36.660Z,96428.63
2018-02-03T00:37:04.506Z,96423.90
2018-02-03T00:39:32.016Z,96419.24
2018-02-03T00:41:59.525Z,96418.35
2018-02-03T00:44:27.057Z,96421.73
2018-02-03T00:46:54.626Z,96419.08
2018-02-03T00:49:22.245Z,96425.20
2018-02-03T00:51:49.757Z,96421.45
2018-02-03T00:54:17.262Z,96419.41
2018-02-03T00:56:44.801Z,96414.72
2018-02-03T00:59:12.304Z,96411.59
2018-02-03T01:01:40.238Z,96410.19
2018-02-03T01:04:07.775Z,96413.47
2018-02-03T01:06:35.285Z,96413.41
2018-02-03T01:09:02.830Z,96410.91
2018-02-03T01:11:30.334Z,96406.72
2018-02-03T01:13:58.069Z,96405.84
2018-02-03T01:16:25.573Z,96405.42
2018-02-03T01:18:53.077Z,96408.67
2018-02-03T01:21:20.611Z,96405.98
2018-02-03T01:23:48.118Z,96403.81
2018-02-03T01:26:15.665Z,96402.50
2018-02-03T01:28:43.165Z,96402.63
2018-02-03T01:31:10.673Z,96407.14
2018-02-03T01:33:38.207Z,96396.59
2018-02-03T01:36:05.714Z,96404.37
2018-02-03T01:38:33.253Z,96405.08
2018-02-03T01:41:00.766Z,96398.67
2018-02-03T01:43:28.274Z,96397.42
2018-02-03T01:45:55.808Z,96395.06
2018-02-03T01:48:23.313Z,96389.83
2018-02-03T01:50:51.416Z,96382.27
2018-02-03T01:53:18.941Z,96389.34
2018-02-03T01:55:46.458Z,96381.08
2018-02-03T01:58:14.065Z,96380.04
2018-02-03T02:00:41.619Z,96378.28
2018-02-03T02:03:09.323Z,96380.06
2018-02-03T02:05:36.836Z,96381.28
2018-02-03T02:08:04.338Z,96375.92
2018-02-03T02:10:31.882Z,96378.16
2018-02-03T02:12:59.429Z,96371.96
2018-02-03T02:15:26.982Z,96367.84
2018-02-03T02:17:54.490Z,96370.00
2018-02-03T02:20:21.996Z,96364.94
2018-02-03T02:22:49.533Z,96368.80
2018-02-03T02:25:17.041Z,96368.88
2018-02-03T02:27:44.591Z,96376.31
2018-02-03T02:30:12.098Z,96377.97
2018-02-03T02:32:39.610Z,96376.66
2018-02-03T02:35:07.142Z,96374.88
2018-02-03T02:37:34.649Z,96377.12
2018-02-03T02:40:02.202Z,96370.33
2018-02-03T02:42:29.704Z,96363.45
2018-02-03T02:44:57.209Z,96366.27
2018-02-03T02:47:24.761Z,96367.16
2018-02-03T02:49:52.267Z,96361.92
2018-02-03T02:52:20.933Z,96355.47
2018-02-03T02:54:48.437Z,96361.77
2018-02-03T02:57:15.945Z,96358.20
2018-02-03T02:59:43.484Z,96358.09
2018-02-03T03:02:10.993Z,96362.03
2018-02-03T03:04:38.905Z,96362.70
2018-02-03T03:07:06.417Z,96357.03
2018-02-03T03:09:33.925Z,96353.17
2018-02-03T03:12:01.470Z,96356.38
2018-02-03T03:14:28.982Z,96348.88
2018-02-03T03:16:56.827Z,96348.33
2018-02-03T03:19:24.334Z,96348.12
2018-02-03T03:21:51.837Z,96342.66
2018-02-03T03:24:19.373Z,96339.27
2018-02-03T03:26:46.877Z,96336.27
2018-02-03T03:29:14.418Z,96336.11
2018-02-03T03:31:41.931Z,96336.75
2018-02-03T03:34:09.433Z,96339.44
2018-02-03T03:36:36.965Z,96337.53
2018-02-03T03:39:04.474Z,96337.72
2018-02-03T03:41:32.397Z,96343.33
2018-02-03T03:43:59.906Z,96341.27
2018-02-03T03:46:27.414Z,96337.56
2018-02-03T03:48:54.950Z,96338.51
2018-02-03T03:51:22.458Z,96337.40
2018-02-03T03:53:50.294Z,96344.06
2018-02-03T03:56:17.801Z,96342.98
2018-02-03T03:58:45.306Z,96351.28
2018-02-03T04:01:12.850Z,96355.38
2018-02-03T04:03:40.357Z,96345.74
2018-02-03T04:06:08.097Z,96348.18
2018-02-03T04:08:35.606Z,96347.09
2018-02-03T04:11:03.110Z,96350.58
2018-02-03T04:13:30.641Z,96343.05
2018-02-03T04:15:58.149Z,96345.84
2018-02-03T04:18:25.912Z,96342.91
2018-02-03T04:20:53.412Z,96341.49
2018-02-03T04:23:20.909Z,96344.52
2018-02-03T04:25:48.442Z,96339.59
2018-02-03T04:28:15.954Z,96348.72
2018-02-03T04:30:43.770Z,96347.86
2018-02-03T04:33:11.265Z,96339.34
2018-02-03T04:35:38.789Z,96346.23
2018-02-03T04:38:06.325Z,96347.95
2018-02-03T04:40:33.841Z,96349.08
2018-02-03T04:43:01.391Z,96348.73
2018-02-03T04:45:28.894Z,96357.08
2018-02-03T04:47:56.429Z,96369.50
2018-02-03T04:50:23.965Z,96362.19
2018-02-03T04:52:51.473Z,96366.01
2018-02-03T04:55:19.301Z,96361.13
2018-02-03T04:57:46.809Z,96357.30
2018-02-03T05:00:14.358Z,96356.39
2018-02-03T05:02:41.884Z,96356.89
2018-02-03T05:05:09.395Z,96352.22
2018-02-03T05:07:37.578Z,96356.27
2018-02-03T05:10:05.081Z,96351.89
2018-02-03T05:12:32.584Z,96349.50
2018-02-03T05:15:00.133Z,96349.59
2018-02-03T05:17:27.637Z,96348.31
2018-02-03T05:19:55.374Z,96349.95
2018-02-03T05:22:22.898Z,96348.63
2018-02-03T05:24:50.406Z,96350.70
2018-02-03T05:27:17.937Z,96344.81
2018-02-03T05:29:45.444Z,96348.80
2018-02-03T05:32:13.001Z,96344.68
2018-02-03T05:34:40.509Z,96344.24
2018-02-03T05:37:08.077Z,96345.65
2018-02-03T05:39:35.621Z,96343.05
2018-02-03T05:42:03.124Z,96347.98
2018-02-03T05:44:30.960Z,96344.68
2018-02-03T05:46:58.457Z,96346.20
2018-02-03T05:49:25.965Z,96349.41
2018-02-03T05:51:53.509Z,96352.31
2018-02-03T05:54:21.014Z,96352.76
2018-02-03T05:56:48.709Z,96352.26
2018-02-03T05:59:16.208Z,96352.28
2018-02-03T06:01:43.749Z,96351.50
2018-02-03T06:04:11.294Z,96346.62
2018-02-03T06:06:38.793Z,96351.46
2018-02-03T06:09:06.452Z,96341.78
2018-02-03T06:11:33.977Z,96339.55
2018-02-03T06:14:01.529Z,96337.64
2018-02-03T06:16:29.083Z,96332.33
2018-02-03T06:18:56.586Z,96336.52
2018-02-03T06:21:24.145Z,96326.72
2018-02-03T06:23:51.669Z,96326.58
2018-02-03T06:26:19.175Z,96334.56
2018-02-03T06:28:46.727Z,96340.98
2018-02-03T06:31:14.229Z,96336.86
2018-02-03T06:33:41.840Z,96351.83
2018-02-03T06:36:09.370Z,96353.89
2018-02-03T06:38:36.874Z,96354.95
2018-02-03T06:41:04.417Z,96350.06
2018-02-03T06:43:31.921Z,96348.06
2018-02-03T06:45:59.655Z,96355.77
2018-02-03T06:48:27.169Z,96354.77
2018-02-03T06:50:54.675Z,96351.67
2018-02-03T06:53:22.219Z,96356.39
2018-02-03T06:55:49.731Z,96350.08
2018-02-03T06:58:17.550Z,96352.98
2018-02-03T07:00:45.057Z,96354.72
2018-02-03T07:03:12.688Z,96352.23
2018-02-03T07:05:40.229Z,96350.65
2018-02-03T07:08:07.744Z,96350.84
2018-02-03T07:10:35.444Z,96347.98
2018-02-03T07:13:02.950Z,96346.36
2018-02-03T07:15:30.463Z,96339.58
2018-02-03T07:17:57.990Z,96340.88
2018-02-03T07:20:25.517Z,96343.88
2018-02-03T07:22:53.229Z,96342.84
2018-02-03T07:25:20.738Z,96349.02
2018-02-03T07:27:48.241Z,96346.93
2018-02-03T07:30:15.794Z,96344.42
2018-02-03T07:32:43.305Z,96346.77
2018-02-03T07:35:10.857Z,96349.91
2018-02-03T07:37:38.356Z,96361.72
2018-02-03T07:40:05.859Z,96357.11
2018-02-03T07:42:33.390Z,96353.89
2018-02-03T07:45:00.898Z,96355.58
2018-02-03T07:47:28.459Z,96361.55
2018-02-03T07:49:55.970Z,96353.08
2018-02-03T07:52:23.629Z,96358.61
2018-02-03T07:54:51.165Z,96355.30
2018-02-03T07:57:18.673Z,96359.27
2018-02-03T07:59:46.436Z,96360.28
2018-02-03T08:02:13.953Z,96360.11
2018-02-03T08:04:41.457Z,96359.61
2018-02-03T08:07:08.998Z,96368.28
2018-02-03T08:09:36.511Z,96364.55
2018-02-03T08:12:04.250Z,96364.27
2018-02-03T08:14:31.793Z,96373.70
2018-02-03T08:16:59.301Z,96367.25
2018-02-03T08:19:26.835Z,96364.11
2018-02-03T08:21:54.385Z,96363.86
2018-02-03T08:24:22.010Z,96358.41
2018-02-03T08:26:49.518Z,96368.38
2018-02-03T08:29:17.022Z,96362.50
2018-02-03T08:31:45.016Z,96371.02
2018-02-03T08:34:12.521Z,96371.75
2018-02-03T08:36:40.205Z,96370.38
2018-02-03T08:39:07.722Z,96370.13
2018-02-03T08:41:35.240Z,96371.64
2018-02-03T08:44:02.785Z,96369.86
2018-02-03T08:46:31.596Z,96373.66
2018-02-03T08:49:00.053Z,96374.80
2018-02-03T08:51:27.561Z,96366.82
2018-02-03T08:53:55.107Z,96364.09
2018-02-03T08:56:22.794Z,96357.70
2018-02-03T08:58:50.621Z,96359.09
2018-02-03T09:01:18.282Z,96348.98
2018-02-03T09:03:46.661Z,96346.22
2018-02-03T09:06:14.225Z,96345.05
2018-02-03T09:08:41.803Z,96338.29
2018-02-03T09:11:09.309Z,96338.47
2018-02-03T09:13:37.203Z,96336.73
2018-02-03T09:16:04.713Z,96327.84
2018-02-03T09:18:32.227Z,96320.27
2018-02-03T09:20:59.930Z,96323.36
2018-02-03T09:23:27.446Z,96318.98
2018-02-03T09:25:54.963Z,96333.34
2018-02-03T09:28:22.764Z,96341.89
2018-02-03T09:30:50.359Z,96347.92
2018-02-03T09:33:17.880Z,96349.27
2018-02-03T09:35:45.750Z,96347.72
2018-02-03T09:38:13.306Z,96346.70
2018-02-03T09:40:40.834Z,96346.80
2018-02-03T09:43:08.410Z,96351.84
2018-02-03T09:45:35.939Z,96349.34
2018-02-03T09:48:03.457Z,96346.83
2018-02-03T09:50:31.026Z,96347.84
2018-02-03T09:52:58.541Z,96354.23
2018-02-03T09:55:26.117Z,96342.37
2018-02-03T09:57:53.696Z,96344.30
2018-02-03T10:00:21.441Z,96342.75
2018-02-03T10:02:49.097Z,96340.54
2018-02-03T10:05:16.888Z,96335.22
2018-02-03T10:07:44.835Z,96342.50
2018-02-03T10:10:12.546Z,96347.75
2018-02-03T10:12:40.231Z,96345.84
2018-02-03T10:15:07.801Z,96349.11
2018-02-03T10:17:35.481Z,96343.95
2018-02-03T10:20:03.348Z,96353.27
2018-02-03T10:22:31.123Z,96349.42
2018-02-03T10:24:58.711Z,96344.47
2018-02-03T10:27:26.639Z,96344.02
2018-02-03T10:29:54.403Z,96341.73
2018-02-03T10:32:22.875Z,96343.48
2018-02-03T10:34:50.648Z,96343.59
2018-02-03T10:37:18.215Z,96338.59
2018-02-03T10:39:45.869Z,96336.55
2018-02-03T10:42:13.728Z,96341.52
2018-02-03T10:44:41.295Z,96335.76
2018-02-03T10:47:09.263Z,96334.67
2018-02-03T10:49:36.923Z,96323.16
2018-02-03T10:52:04.450Z,96320.34
2018-02-03T10:54:32.247Z,96320.95
2018-02-03T10:56:59.866Z,96314.95
2018-02-03T10:59:27.551Z,96310.54
2018-02-03T11:01:55.437Z,96312.05
2018-02-03T11:04:22.965Z,96309.28
2018-02-03T11:06:50.750Z,96313.55
2018-02-03T11:09:18.394Z,96309.09
2018-02-03T11:11:46.098Z,96307.49
2018-02-03T11:20:17.832Z,96300.36
2018-02-03T11:22:45.406Z,96301.27
2018-02-03T11:25:13.256Z,96296.39
2018-02-03T11:27:40.773Z,96300.69
2018-02-03T11:30:08.439Z,96291.16
2018-02-03T11:32:36.140Z,96287.78
2018-02-03T11:35:03.653Z,96288.67
2018-02-03T11:37:31.668Z,96287.05
2018-02-03T11:39:59.197Z,96280.57
2018-02-03T11:42:27.250Z,96283.92
2018-02-03T11:44:55.037Z,96288.17
2018-02-03T11:47:22.712Z,96295.27
2018-02-03T11:49:50.659Z,96292.81
2018-02-03T11:52:18.454Z,96293.38
2018-02-03T11:54:46.117Z,96292.36
2018-02-03T11:57:14.785Z,96288.80
2018-02-03T11:59:42.670Z,96286.16
2018-02-03T12:02:10.740Z,96285.92
2018-02-03T12:04:38.402Z,96290.66
2018-02-03T12:07:06.271Z,96289.77
2018-02-03T12:09:33.853Z,96284.03
2018-02-03T12:12:01.570Z,96283.71
2018-02-03T12:14:29.459Z,96285.16
2018-02-03T12:16:57.091Z,96285.61
2018-02-03T12:19:24.651Z,96283.73
2018-02-03T12:21:52.208Z,96292.30
2018-02-03T12:24:19.794Z,96286.43
2018-02-03T12:26:47.838Z,96283.34
2018-02-03T12:29:15.435Z,96278.86
2018-02-03T12:31:42.971Z,96273.50
2018-02-03T12:34:10.508Z,96274.01
2018-02-03T12:36:38.303Z,96266.42
2018-02-03T12:39:06.074Z,96265.20
2018-02-03T12:41:33.840Z,96267.20
2018-02-03T12:44:01.362Z,96255.98
2018-02-03T12:46:29.159Z,96251.69
2018-02-03T12:48:56.802Z,96257.70
2018-02-03T12:51:24.690Z,96254.30
2018-02-03T12:53:52.441Z,96256.66
2018-02-03T12:56:19.954Z,96248.69
2018-02-03T12:58:47.486Z,96239.53
2018-02-03T13:01:15.124Z,96235.52
2018-02-03T13:03:42.714Z,96238.42
2018-02-03T13:06:10.349Z,96234.88
2018-02-03T13:08:37.915Z,96233.20
2018-02-03T13:11:05.458Z,96230.25
2018-02-03T13:13:33.027Z,96235.55
2018-02-03T13:16:00.593Z,96230.05
2018-02-03T13:18:28.106Z,96230.22
2018-02-03T13:20:55.608Z,96231.64
2018-02-03T13:23:23.233Z,96230.77
2018-02-03T13:25:50.793Z,96232.72
2018-02-03T13:28:18.472Z,96229.09
2018-02-03T13:30:45.982Z,96220.94
2018-02-03T13:33:13.605Z,96226.38
2018-02-03T13:35:41.170Z,96225.88
2018-02-03T18:12:36.445Z,96321.48
2018-02-03T18:15:04.154Z,96323.40
2018-02-03T18:17:31.814Z,96323.09
2018-02-03T18:19:59.681Z,96326.82
2018-02-03T18:22:27.225Z,96329.47
2018-02-03T18:24:54.739Z,96331.59
2018-02-03T18:27:22.548Z,96329.53
2018-02-03T18:29:50.110Z,96330.58
2018-02-03T18:32:17.885Z,96330.94
2018-02-03T18:34:45.473Z,96340.14
2018-02-03T18:37:13.415Z,96341.80
2018-02-03T18:39:41.074Z,96343.48
2018-02-03T18:42:09.045Z,96339.80
2018-02-03T18:44:36.910Z,96340.23
2018-02-03T18:47:04.777Z,96343.48
2018-02-03T18:49:32.950Z,96340.63
2018-02-03T18:52:00.818Z,96345.91
2018-02-03T18:54:28.889Z,96344.06
2018-02-03T18:56:56.755Z,96345.98
2018-02-03T18:59:24.504Z,96347.06
2018-02-03T19:01:52.781Z,96349.92
2018-02-03T19:04:20.458Z,96350.70
2018-02-03T19:06:48.526Z,96348.08
2018-02-03T19:09:16.394Z,96347.09
2018-02-03T19:11:44.260Z,96349.27
2018-02-03T19:14:11.913Z,96354.59
2018-02-03T19:16:39.655Z,96347.48
2018-02-03T19:19:07.556Z,96351.69
2018-02-03T19:21:35.363Z,96358.02
2018-02-03T19:24:02.985Z,96358.78
2018-02-03T19:26:31.356Z,96362.70
2018-02-03T19:28:59.188Z,96359.77
2018-02-03T19:31:26.987Z,96366.66
2018-02-03T19:33:54.685Z,96370.48
2018-02-03T19:36:22.415Z,96369.39
2018-02-03T19:38:49.969Z,96370.50
2018-02-03T19:41:18.043Z,96376.40
2018-02-03T19:43:45.705Z,96369.33
2018-02-03T19:46:13.486Z,96370.83
2018-02-03T19:48:41.235Z,96370.89
2018-02-03T19:51:09.241Z,96376.64
2018-02-03T19:53:36.956Z,96372.89
2018-02-03T19:56:04.730Z,96372.83
2018-02-03T19:58:32.493Z,96377.48
2018-02-03T20:01:00.229Z,96374.16
2018-02-03T20:03:28.337Z,96371.92
2018-02-03T20:05:56.199Z,96382.03
2018-02-03T20:08:23.859Z,96378.11
2018-02-03T20:10:51.622Z,96385.59
2018-02-03T20:13:20.668Z,96385.47
2018-02-03T20:15:48.756Z,96388.11
2018-02-03T20:18:16.756Z,96398.95
2018-02-03T20:20:44.623Z,96398.45
2018-02-03T20:23:12.386Z,96392.17
2018-02-03T20:25:40.252Z,96397.62
2018-02-03T20:28:08.239Z,96395.10
2018-02-03T20:30:36.072Z,96397.88
2018-02-03T20:33:03.727Z,96401.92
2018-02-03T20:35:31.513Z,96400.12
2018-02-03T20:37:59.198Z,96407.70
2018-02-03T20:40:27.189Z,96413.07
2018-02-03T20:42:54.864Z,96403.52
2018-02-03T20:45:22.791Z,96410.06
2018-02-03T20:47:50.581Z,96407.43
2018-02-03T20:50:18.340Z,96416.29
2018-02-03T20:52:46.189Z,96414.01
2018-02-03T20:55:13.773Z,96418.87
2018-02-03T20:57:41.599Z,96418.47
2018-02-03T21:00:09.238Z,96414.48
2018-02-03T21:02:36.875Z,96419.55
2018-02-03T21:05:04.969Z,96423.05
2018-02-03T21:07:32.546Z,96417.29
2018-02-03T21:10:00.202Z,96421.38
2018-02-03T21:12:28.179Z,96422.05
2018-02-03T21:14:55.931Z,96421.58
2018-02-03T21:17:23.911Z,96423.33
2018-02-03T21:19:51.733Z,96428.89
2018-02-03T21:22:19.399Z,96430.99
2018-02-03T21:24:47.107Z,96435.93
2018-02-03T21:27:14.799Z,96437.71
2018-02-03T21:29:42.476Z,96440.52
2018-02-03T21:32:10.089Z,96435.90
2018-02-03T21:34:37.747Z,96435.09
2018-02-03T21:37:05.399Z,96440.40
2018-02-03T21:39:33.082Z,96439.23
2018-02-03T21:42:00.816Z,96443.83
2018-02-03T21:44:28.458Z,96445.39
2018-02-03T21:46:56.150Z,96446.62
2018-02-03T21:49:23.914Z,96447.78
2018-02-03T21:51:51.696Z,96447.67
2018-02-03T21:54:19.666Z,96452.88
2018-02-03T21:56:47.311Z,96449.80
2018-02-03T21:59:14.930Z,96458.23
2018-02-03T22:01:42.620Z,96455.73
2018-02-03T22:04:10.200Z,96457.97
2018-02-03T22:06:38.218Z,96454.41
2018-02-03T22:09:06.037Z,96462.25
2018-02-03T22:11:33.622Z,96465.50
2018-02-03T22:14:01.196Z,96471.95
2018-02-03T22:16:28.765Z,96469.25
2018-02-03T22:18:56.501Z,96471.61
2018-02-03T22:21:24.138Z,96474.98
2018-02-03T22:23:51.725Z,96476.70
2018-02-03T22:26:19.311Z,96482.28
2018-02-03T22:28:46.833Z,96481.98
2018-02-03T22:31:14.608Z,96481.17
2018-02-03T22:33:42.201Z,96488.40
2018-02-03T22:36:09.797Z,96484.45
2018-02-03T22:38:37.340Z,96487.19
2018-02-03T22:41:04.870Z,96492.34
2018-02-03T22:43:32.703Z,96489.89
2018-02-03T22:46:00.244Z,96498.53
2018-02-03T22:48:27.761Z,96498.81
2018-02-03T22:50:55.317Z,96500.64
2018-02-03T22:53:22.826Z,96510.45
2018-02-03T22:55:50.479Z,96512.69
2018-02-03T22:58:17.997Z,96511.61
2018-02-03T23:00:51.167Z,96518.11
2018-02-03T23:03:18.688Z,96519.27
2018-02-03T23:05:46.205Z,96521.58
2018-02-03T23:08:13.740Z,96529.39
2018-02-03T23:10:41.253Z,96531.81
2018-02-03T23:13:09.012Z,96539.47
2018-02-03T23:15:36.534Z,96538.08
2018-02-03T23:18:04.154Z,96540.81
2018-02-03T23:20:31.694Z,96540.02
2018-02-03T23:22:59.215Z,96549.77
2018-02-03T23:25:26.768Z,96549.11
2018-02-03T23:27:54.302Z,96551.63
2018-02-03T23:30:21.821Z,96551.42
2018-02-03T23:32:50.261Z,96551.52
2018-02-03T23:35:17.770Z,96553.66
2018-02-03T23:37:45.329Z,96549.15
2018-02-03T23:40:12.869Z,96550.32
2018-02-03T23:42:40.382Z,96552.91
2018-02-03T23:45:07.925Z,96563.76
2018-02-03T23:47:35.433Z,96553.12
2018-02-03T23:50:03.221Z,96554.84
2018-02-03T23:52:31.722Z,96557.73
2018-02-03T23:54:59.554Z,96556.27
2018-02-03T23:57:27.120Z,96557.80
2018-02-03T23:59:54.645Z,96557.44
